sensor_id;sensor_type;location;lat;lon;timestamp;P1;durP1;ratioP1;P2;durP2;ratioP2
33266;SDS011;19638;49.080;11.896;2023-05-13T00:01:27;4.93;;;4.43;;
33266;SDS011;19638;49.080;11.896;2023-05-13T00:05:31;5.38;;;4.40;;
33266;SDS011;19638;49.080;11.896;2023-05-13T00:09:38;5.72;;;4.47;;
33266;SDS011;19638;49.080;11.896;2023-05-13T00:13:45;7.20;;;4.85;;
33266;SDS011;19638;49.080;11.896;2023-05-13T00:17:51;5.45;;;4.88;;
33266;SDS011;19638;49.080;11.896;2023-05-13T00:21:54;8.15;;;4.72;;
33266;SDS011;19638;49.080;11.896;2023-05-13T00:30:18;7.63;;;4.85;;
33266;SDS011;19638;49.080;11.896;2023-05-13T00:34:27;7.82;;;4.55;;
33266;SDS011;19638;49.080;11.896;2023-05-13T00:38:30;6.10;;;4.47;;
33266;SDS011;19638;49.080;11.896;2023-05-13T00:42:35;4.78;;;4.20;;
33266;SDS011;19638;49.080;11.896;2023-05-13T00:46:38;7.30;;;4.80;;
33266;SDS011;19638;49.080;11.896;2023-05-13T00:50:41;6.10;;;5.13;;
33266;SDS011;19638;49.080;11.896;2023-05-13T00:54:45;6.28;;;4.60;;
33266;SDS011;19638;49.080;11.896;2023-05-13T00:58:49;6.88;;;4.78;;
33266;SDS011;19638;49.080;11.896;2023-05-13T01:02:56;5.85;;;5.22;;
33266;SDS011;19638;49.080;11.896;2023-05-13T01:07:07;7.43;;;4.95;;
33266;SDS011;19638;49.080;11.896;2023-05-13T01:11:20;6.68;;;4.88;;
33266;SDS011;19638;49.080;11.896;2023-05-13T01:15:28;7.30;;;5.25;;
33266;SDS011;19638;49.080;11.896;2023-05-13T01:19:36;6.30;;;5.00;;
33266;SDS011;19638;49.080;11.896;2023-05-13T01:23:44;7.10;;;5.53;;
33266;SDS011;19638;49.080;11.896;2023-05-13T01:27:50;6.15;;;5.55;;
33266;SDS011;19638;49.080;11.896;2023-05-13T01:31:54;5.50;;;4.85;;
33266;SDS011;19638;49.080;11.896;2023-05-13T01:36:00;6.40;;;5.22;;
33266;SDS011;19638;49.080;11.896;2023-05-13T01:40:05;6.30;;;5.45;;
33266;SDS011;19638;49.080;11.896;2023-05-13T01:44:29;7.82;;;5.00;;
33266;SDS011;19638;49.080;11.896;2023-05-13T01:48:37;7.13;;;4.80;;
33266;SDS011;19638;49.080;11.896;2023-05-13T01:52:43;6.78;;;5.45;;
33266;SDS011;19638;49.080;11.896;2023-05-13T01:56:49;7.10;;;5.32;;
33266;SDS011;19638;49.080;11.896;2023-05-13T02:00:53;6.50;;;4.65;;
33266;SDS011;19638;49.080;11.896;2023-05-13T02:04:56;8.77;;;6.07;;
33266;SDS011;19638;49.080;11.896;2023-05-13T02:09:02;7.65;;;5.10;;
33266;SDS011;19638;49.080;11.896;2023-05-13T02:13:07;6.55;;;5.38;;
33266;SDS011;19638;49.080;11.896;2023-05-13T02:17:13;7.65;;;5.80;;
33266;SDS011;19638;49.080;11.896;2023-05-13T02:21:17;9.77;;;5.40;;
33266;SDS011;19638;49.080;11.896;2023-05-13T02:25:20;7.90;;;5.35;;
33266;SDS011;19638;49.080;11.896;2023-05-13T02:29:29;7.95;;;5.22;;
33266;SDS011;19638;49.080;11.896;2023-05-13T02:33:32;7.30;;;6.00;;
33266;SDS011;19638;49.080;11.896;2023-05-13T02:37:35;8.27;;;5.63;;
33266;SDS011;19638;49.080;11.896;2023-05-13T02:41:39;6.97;;;5.75;;
33266;SDS011;19638;49.080;11.896;2023-05-13T02:45:46;8.55;;;7.05;;
33266;SDS011;19638;49.080;11.896;2023-05-13T02:49:55;8.40;;;6.30;;
33266;SDS011;19638;49.080;11.896;2023-05-13T02:53:58;8.15;;;6.35;;
33266;SDS011;19638;49.080;11.896;2023-05-13T02:58:01;8.85;;;6.20;;
33266;SDS011;19638;49.080;11.896;2023-05-13T03:02:06;11.70;;;6.28;;
33266;SDS011;19638;49.080;11.896;2023-05-13T03:06:12;8.55;;;6.35;;
33266;SDS011;19638;49.080;11.896;2023-05-13T03:10:15;10.80;;;6.32;;
33266;SDS011;19638;49.080;11.896;2023-05-13T03:14:20;6.82;;;5.53;;
33266;SDS011;19638;49.080;11.896;2023-05-13T03:18:26;8.75;;;5.93;;
33266;SDS011;19638;49.080;11.896;2023-05-13T03:22:31;9.60;;;5.90;;
33266;SDS011;19638;49.080;11.896;2023-05-13T03:26:35;6.90;;;5.80;;
33266;SDS011;19638;49.080;11.896;2023-05-13T03:30:38;6.93;;;5.75;;
33266;SDS011;19638;49.080;11.896;2023-05-13T03:34:43;7.22;;;6.00;;
33266;SDS011;19638;49.080;11.896;2023-05-13T03:38:48;8.70;;;6.53;;
33266;SDS011;19638;49.080;11.896;2023-05-13T03:42:57;8.48;;;6.80;;
33266;SDS011;19638;49.080;11.896;2023-05-13T03:47:02;7.85;;;5.95;;
33266;SDS011;19638;49.080;11.896;2023-05-13T03:51:07;8.40;;;6.60;;
33266;SDS011;19638;49.080;11.896;2023-05-13T03:55:10;7.70;;;6.15;;
33266;SDS011;19638;49.080;11.896;2023-05-13T03:59:17;7.03;;;6.07;;
33266;SDS011;19638;49.080;11.896;2023-05-13T04:03:20;9.25;;;6.38;;
33266;SDS011;19638;49.080;11.896;2023-05-13T04:07:25;8.02;;;6.30;;
33266;SDS011;19638;49.080;11.896;2023-05-13T04:11:31;8.55;;;6.32;;
33266;SDS011;19638;49.080;11.896;2023-05-13T04:15:34;10.80;;;6.57;;
33266;SDS011;19638;49.080;11.896;2023-05-13T04:19:37;9.32;;;6.60;;
33266;SDS011;19638;49.080;11.896;2023-05-13T04:23:41;8.93;;;6.65;;
33266;SDS011;19638;49.080;11.896;2023-05-13T04:27:44;9.73;;;6.55;;
33266;SDS011;19638;49.080;11.896;2023-05-13T04:31:55;7.93;;;6.80;;
33266;SDS011;19638;49.080;11.896;2023-05-13T04:35:58;9.13;;;6.30;;
33266;SDS011;19638;49.080;11.896;2023-05-13T04:40:02;9.50;;;6.90;;
33266;SDS011;19638;49.080;11.896;2023-05-13T04:44:06;7.15;;;6.32;;
33266;SDS011;19638;49.080;11.896;2023-05-13T04:48:11;10.00;;;6.85;;
33266;SDS011;19638;49.080;11.896;2023-05-13T04:52:14;11.50;;;7.65;;
33266;SDS011;19638;49.080;11.896;2023-05-13T04:56:19;10.32;;;7.18;;
33266;SDS011;19638;49.080;11.896;2023-05-13T05:00:23;12.38;;;8.05;;
33266;SDS011;19638;49.080;11.896;2023-05-13T05:04:26;10.35;;;7.95;;
33266;SDS011;19638;49.080;11.896;2023-05-13T05:08:29;9.60;;;7.15;;
33266;SDS011;19638;49.080;11.896;2023-05-13T05:12:34;9.07;;;7.47;;
33266;SDS011;19638;49.080;11.896;2023-05-13T05:16:39;11.23;;;7.68;;
33266;SDS011;19638;49.080;11.896;2023-05-13T05:20:46;10.05;;;7.95;;
33266;SDS011;19638;49.080;11.896;2023-05-13T05:24:49;11.20;;;7.25;;
33266;SDS011;19638;49.080;11.896;2023-05-13T05:28:54;10.90;;;7.47;;
33266;SDS011;19638;49.080;11.896;2023-05-13T05:33:01;11.05;;;7.28;;
33266;SDS011;19638;49.080;11.896;2023-05-13T05:37:09;10.68;;;7.50;;
33266;SDS011;19638;49.080;11.896;2023-05-13T05:41:12;9.60;;;6.95;;
33266;SDS011;19638;49.080;11.896;2023-05-13T05:45:17;11.80;;;7.05;;
33266;SDS011;19638;49.080;11.896;2023-05-13T05:49:22;12.50;;;7.43;;
33266;SDS011;19638;49.080;11.896;2023-05-13T05:53:25;9.45;;;6.68;;
33266;SDS011;19638;49.080;11.896;2023-05-13T05:57:32;8.18;;;7.00;;
33266;SDS011;19638;49.080;11.896;2023-05-13T06:01:36;10.52;;;6.85;;
33266;SDS011;19638;49.080;11.896;2023-05-13T06:05:39;11.80;;;7.82;;
33266;SDS011;19638;49.080;11.896;2023-05-13T06:09:44;9.43;;;6.40;;
33266;SDS011;19638;49.080;11.896;2023-05-13T06:13:48;9.45;;;6.55;;
33266;SDS011;19638;49.080;11.896;2023-05-13T06:17:53;9.85;;;7.10;;
33266;SDS011;19638;49.080;11.896;2023-05-13T06:21:56;9.02;;;6.75;;
33266;SDS011;19638;49.080;11.896;2023-05-13T06:26:01;10.27;;;5.60;;
33266;SDS011;19638;49.080;11.896;2023-05-13T06:30:06;8.52;;;6.00;;
33266;SDS011;19638;49.080;11.896;2023-05-13T06:34:15;6.82;;;5.72;;
33266;SDS011;19638;49.080;11.896;2023-05-13T06:38:20;10.27;;;6.13;;
33266;SDS011;19638;49.080;11.896;2023-05-13T06:42:25;6.80;;;5.60;;
33266;SDS011;19638;49.080;11.896;2023-05-13T06:46:28;7.63;;;6.18;;
33266;SDS011;19638;49.080;11.896;2023-05-13T06:50:32;6.43;;;5.72;;
33266;SDS011;19638;49.080;11.896;2023-05-13T06:54:37;14.70;;;6.25;;
33266;SDS011;19638;49.080;11.896;2023-05-13T06:58:42;7.50;;;5.80;;
33266;SDS011;19638;49.080;11.896;2023-05-13T07:02:45;8.88;;;5.72;;
33266;SDS011;19638;49.080;11.896;2023-05-13T07:06:50;7.38;;;5.22;;
33266;SDS011;19638;49.080;11.896;2023-05-13T07:10:57;6.35;;;5.10;;
33266;SDS011;19638;49.080;11.896;2023-05-13T07:15:00;7.18;;;5.97;;
33266;SDS011;19638;49.080;11.896;2023-05-13T07:19:03;6.93;;;5.13;;
33266;SDS011;19638;49.080;11.896;2023-05-13T07:23:08;6.10;;;5.28;;
33266;SDS011;19638;49.080;11.896;2023-05-13T07:27:12;6.53;;;4.70;;
33266;SDS011;19638;49.080;11.896;2023-05-13T07:31:15;5.63;;;5.10;;
33266;SDS011;19638;49.080;11.896;2023-05-13T07:35:23;4.50;;;4.10;;
33266;SDS011;19638;49.080;11.896;2023-05-13T07:39:31;4.45;;;4.05;;
33266;SDS011;19638;49.080;11.896;2023-05-13T07:43:34;9.48;;;5.85;;
33266;SDS011;19638;49.080;11.896;2023-05-13T07:47:39;4.47;;;4.07;;
33266;SDS011;19638;49.080;11.896;2023-05-13T07:51:45;4.05;;;3.58;;
33266;SDS011;19638;49.080;11.896;2023-05-13T07:55:55;4.57;;;4.18;;
33266;SDS011;19638;49.080;11.896;2023-05-13T07:59:58;3.90;;;3.40;;
33266;SDS011;19638;49.080;11.896;2023-05-13T08:04:02;6.22;;;3.85;;
33266;SDS011;19638;49.080;11.896;2023-05-13T08:08:08;3.10;;;2.90;;
33266;SDS011;19638;49.080;11.896;2023-05-13T08:12:13;4.03;;;3.47;;
33266;SDS011;19638;49.080;11.896;2023-05-13T08:16:16;3.58;;;3.20;;
33266;SDS011;19638;49.080;11.896;2023-05-13T08:20:19;3.72;;;3.08;;
33266;SDS011;19638;49.080;11.896;2023-05-13T08:24:30;4.40;;;2.90;;
33266;SDS011;19638;49.080;11.896;2023-05-13T08:28:36;3.45;;;3.20;;
33266;SDS011;19638;49.080;11.896;2023-05-13T08:32:41;3.00;;;2.80;;
33266;SDS011;19638;49.080;11.896;2023-05-13T08:36:44;2.95;;;2.67;;
33266;SDS011;19638;49.080;11.896;2023-05-13T08:40:47;2.83;;;2.60;;
33266;SDS011;19638;49.080;11.896;2023-05-13T08:44:56;2.72;;;2.53;;
33266;SDS011;19638;49.080;11.896;2023-05-13T08:49:02;3.25;;;2.63;;
33266;SDS011;19638;49.080;11.896;2023-05-13T08:53:05;2.70;;;2.47;;
33266;SDS011;19638;49.080;11.896;2023-05-13T08:57:08;2.53;;;2.38;;
33266;SDS011;19638;49.080;11.896;2023-05-13T09:01:13;2.30;;;2.20;;
33266;SDS011;19638;49.080;11.896;2023-05-13T09:05:17;2.20;;;2.10;;
33266;SDS011;19638;49.080;11.896;2023-05-13T09:09:38;2.35;;;2.25;;
33266;SDS011;19638;49.080;11.896;2023-05-13T09:13:42;2.75;;;2.13;;
33266;SDS011;19638;49.080;11.896;2023-05-13T09:17:48;1.88;;;1.88;;
33266;SDS011;19638;49.080;11.896;2023-05-13T09:21:59;3.40;;;2.00;;
33266;SDS011;19638;49.080;11.896;2023-05-13T09:26:03;1.73;;;1.73;;
33266;SDS011;19638;49.080;11.896;2023-05-13T09:30:06;2.00;;;1.90;;
33266;SDS011;19638;49.080;11.896;2023-05-13T09:34:23;3.40;;;2.10;;
33266;SDS011;19638;49.080;11.896;2023-05-13T09:38:28;6.00;;;2.35;;
33266;SDS011;19638;49.080;11.896;2023-05-13T09:42:32;1.98;;;1.88;;
33266;SDS011;19638;49.080;11.896;2023-05-13T09:46:35;2.00;;;1.80;;
33266;SDS011;19638;49.080;11.896;2023-05-13T09:50:49;2.35;;;2.25;;
33266;SDS011;19638;49.080;11.896;2023-05-13T09:54:53;2.08;;;1.98;;
33266;SDS011;19638;49.080;11.896;2023-05-13T09:58:58;1.90;;;1.80;;
33266;SDS011;19638;49.080;11.896;2023-05-13T10:03:03;2.42;;;2.33;;
33266;SDS011;19638;49.080;11.896;2023-05-13T10:07:08;2.42;;;2.33;;
33266;SDS011;19638;49.080;11.896;2023-05-13T10:11:24;2.40;;;2.20;;
33266;SDS011;19638;49.080;11.896;2023-05-13T10:15:31;2.00;;;1.90;;
33266;SDS011;19638;49.080;11.896;2023-05-13T10:19:35;1.90;;;1.80;;
33266;SDS011;19638;49.080;11.896;2023-05-13T10:23:42;2.05;;;1.95;;
33266;SDS011;19638;49.080;11.896;2023-05-13T10:27:47;2.78;;;2.38;;
33266;SDS011;19638;49.080;11.896;2023-05-13T10:31:54;2.60;;;2.40;;
33266;SDS011;19638;49.080;11.896;2023-05-13T10:36:02;1.70;;;1.70;;
33266;SDS011;19638;49.080;11.896;2023-05-13T10:40:30;1.83;;;1.73;;
33266;SDS011;19638;49.080;11.896;2023-05-13T10:44:57;2.10;;;2.00;;
33266;SDS011;19638;49.080;11.896;2023-05-13T10:49:00;1.80;;;1.70;;
33266;SDS011;19638;49.080;11.896;2023-05-13T10:53:16;2.25;;;2.10;;
33266;SDS011;19638;49.080;11.896;2023-05-13T10:57:27;1.92;;;1.83;;
33266;SDS011;19638;49.080;11.896;2023-05-13T11:01:32;1.98;;;1.88;;
33266;SDS011;19638;49.080;11.896;2023-05-13T11:05:39;1.48;;;1.48;;
33266;SDS011;19638;49.080;11.896;2023-05-13T11:09:49;1.85;;;1.75;;
33266;SDS011;19638;49.080;11.896;2023-05-13T11:13:56;1.83;;;1.73;;
33266;SDS011;19638;49.080;11.896;2023-05-13T11:18:09;3.67;;;1.70;;
33266;SDS011;19638;49.080;11.896;2023-05-13T11:22:18;1.60;;;1.50;;
33266;SDS011;19638;49.080;11.896;2023-05-13T11:26:25;2.38;;;1.80;;
33266;SDS011;19638;49.080;11.896;2023-05-13T11:30:53;2.25;;;1.88;;
33266;SDS011;19638;49.080;11.896;2023-05-13T11:34:59;1.70;;;1.70;;
33266;SDS011;19638;49.080;11.896;2023-05-13T11:39:08;1.90;;;1.90;;
33266;SDS011;19638;49.080;11.896;2023-05-13T11:43:13;1.80;;;1.80;;
33266;SDS011;19638;49.080;11.896;2023-05-13T11:47:25;1.85;;;1.75;;
33266;SDS011;19638;49.080;11.896;2023-05-13T11:51:31;1.67;;;1.58;;
33266;SDS011;19638;49.080;11.896;2023-05-13T11:55:38;1.70;;;1.70;;
33266;SDS011;19638;49.080;11.896;2023-05-13T11:59:50;3.05;;;1.83;;
33266;SDS011;19638;49.080;11.896;2023-05-13T12:04:00;1.60;;;1.50;;
33266;SDS011;19638;49.080;11.896;2023-05-13T12:08:05;1.50;;;1.40;;
33266;SDS011;19638;49.080;11.896;2023-05-13T12:12:09;1.73;;;1.65;;
33266;SDS011;19638;49.080;11.896;2023-05-13T12:16:13;2.88;;;1.58;;
33266;SDS011;19638;49.080;11.896;2023-05-13T12:20:22;1.83;;;1.60;;
33266;SDS011;19638;49.080;11.896;2023-05-13T12:24:31;1.30;;;1.30;;
33266;SDS011;19638;49.080;11.896;2023-05-13T12:28:36;1.60;;;1.60;;
33266;SDS011;19638;49.080;11.896;2023-05-13T12:32:42;1.60;;;1.50;;
33266;SDS011;19638;49.080;11.896;2023-05-13T12:36:49;5.43;;;1.77;;
33266;SDS011;19638;49.080;11.896;2023-05-13T12:41:04;1.75;;;1.75;;
33266;SDS011;19638;49.080;11.896;2023-05-13T12:45:14;1.63;;;1.52;;
33266;SDS011;19638;49.080;11.896;2023-05-13T12:49:17;1.38;;;1.38;;
33266;SDS011;19638;49.080;11.896;2023-05-13T12:53:23;1.90;;;1.80;;
33266;SDS011;19638;49.080;11.896;2023-05-13T12:57:27;1.80;;;1.77;;
33266;SDS011;19638;49.080;11.896;2023-05-13T13:01:32;1.83;;;1.73;;
33266;SDS011;19638;49.080;11.896;2023-05-13T13:05:36;1.50;;;1.50;;
33266;SDS011;19638;49.080;11.896;2023-05-13T13:09:40;1.50;;;1.50;;
33266;SDS011;19638;49.080;11.896;2023-05-13T13:13:44;1.55;;;1.45;;
33266;SDS011;19638;49.080;11.896;2023-05-13T13:17:50;2.90;;;1.48;;
33266;SDS011;19638;49.080;11.896;2023-05-13T13:21:56;1.50;;;1.40;;
33266;SDS011;19638;49.080;11.896;2023-05-13T13:26:04;1.73;;;1.63;;
33266;SDS011;19638;49.080;11.896;2023-05-13T13:30:07;1.73;;;1.73;;
33266;SDS011;19638;49.080;11.896;2023-05-13T13:34:13;1.50;;;1.50;;
33266;SDS011;19638;49.080;11.896;2023-05-13T13:38:16;2.47;;;1.48;;
33266;SDS011;19638;49.080;11.896;2023-05-13T13:42:23;1.52;;;1.42;;
33266;SDS011;19638;49.080;11.896;2023-05-13T13:46:44;1.75;;;1.67;;
33266;SDS011;19638;49.080;11.896;2023-05-13T13:50:49;1.35;;;1.35;;
33266;SDS011;19638;49.080;11.896;2023-05-13T13:54:53;1.63;;;1.52;;
33266;SDS011;19638;49.080;11.896;2023-05-13T13:58:59;1.40;;;1.33;;
33266;SDS011;19638;49.080;11.896;2023-05-13T14:03:03;16.30;;;1.60;;
33266;SDS011;19638;49.080;11.896;2023-05-13T14:07:09;1.60;;;1.25;;
33266;SDS011;19638;49.080;11.896;2023-05-13T14:11:12;1.30;;;1.30;;
33266;SDS011;19638;49.080;11.896;2023-05-13T14:15:18;2.25;;;1.40;;
33266;SDS011;19638;49.080;11.896;2023-05-13T14:19:30;1.55;;;1.45;;
33266;SDS011;19638;49.080;11.896;2023-05-13T14:23:35;1.17;;;1.17;;
33266;SDS011;19638;49.080;11.896;2023-05-13T14:27:38;2.55;;;1.35;;
33266;SDS011;19638;49.080;11.896;2023-05-13T14:31:43;1.45;;;1.45;;
33266;SDS011;19638;49.080;11.896;2023-05-13T14:35:46;2.15;;;2.05;;
33266;SDS011;19638;49.080;11.896;2023-05-13T14:40:03;1.80;;;1.70;;
33266;SDS011;19638;49.080;11.896;2023-05-13T14:44:07;1.60;;;1.60;;
33266;SDS011;19638;49.080;11.896;2023-05-13T14:48:11;3.58;;;1.80;;
33266;SDS011;19638;49.080;11.896;2023-05-13T14:52:15;1.90;;;1.80;;
33266;SDS011;19638;49.080;11.896;2023-05-13T14:56:18;1.95;;;1.85;;
33266;SDS011;19638;49.080;11.896;2023-05-13T15:00:22;1.80;;;1.70;;
33266;SDS011;19638;49.080;11.896;2023-05-13T15:04:29;2.17;;;1.98;;
33266;SDS011;19638;49.080;11.896;2023-05-13T15:08:32;1.80;;;1.80;;
33266;SDS011;19638;49.080;11.896;2023-05-13T15:12:38;2.30;;;2.20;;
33266;SDS011;19638;49.080;11.896;2023-05-13T15:16:42;2.97;;;1.90;;
33266;SDS011;19638;49.080;11.896;2023-05-13T15:20:50;2.40;;;2.20;;
33266;SDS011;19638;49.080;11.896;2023-05-13T15:24:53;2.35;;;2.15;;
33266;SDS011;19638;49.080;11.896;2023-05-13T15:28:56;1.77;;;1.77;;
33266;SDS011;19638;49.080;11.896;2023-05-13T15:32:59;2.00;;;1.90;;
33266;SDS011;19638;49.080;11.896;2023-05-13T15:37:05;2.50;;;2.38;;
33266;SDS011;19638;49.080;11.896;2023-05-13T15:41:12;3.95;;;2.30;;
33266;SDS011;19638;49.080;11.896;2023-05-13T15:45:15;2.95;;;2.75;;
33266;SDS011;19638;49.080;11.896;2023-05-13T15:49:23;2.88;;;2.67;;
33266;SDS011;19638;49.080;11.896;2023-05-13T15:53:29;5.68;;;2.65;;
33266;SDS011;19638;49.080;11.896;2023-05-13T15:57:35;3.05;;;2.85;;
33266;SDS011;19638;49.080;11.896;2023-05-13T16:01:43;3.03;;;2.83;;
33266;SDS011;19638;49.080;11.896;2023-05-13T16:05:47;2.95;;;2.75;;
33266;SDS011;19638;49.080;11.896;2023-05-13T16:09:55;3.20;;;2.95;;
33266;SDS011;19638;49.080;11.896;2023-05-13T16:13:59;5.35;;;3.03;;
33266;SDS011;19638;49.080;11.896;2023-05-13T16:18:02;3.55;;;3.08;;
33266;SDS011;19638;49.080;11.896;2023-05-13T16:26:39;3.50;;;3.20;;
33266;SDS011;19638;49.080;11.896;2023-05-13T16:30:43;3.42;;;3.20;;
33266;SDS011;19638;49.080;11.896;2023-05-13T16:34:49;3.67;;;3.38;;
33266;SDS011;19638;49.080;11.896;2023-05-13T16:38:53;4.18;;;3.35;;
33266;SDS011;19638;49.080;11.896;2023-05-13T16:42:59;4.68;;;3.60;;
33266;SDS011;19638;49.080;11.896;2023-05-13T16:47:05;4.78;;;3.40;;
33266;SDS011;19638;49.080;11.896;2023-05-13T16:51:09;3.95;;;3.65;;
33266;SDS011;19638;49.080;11.896;2023-05-13T16:55:14;4.45;;;4.05;;
33266;SDS011;19638;49.080;11.896;2023-05-13T16:59:19;5.53;;;5.03;;
33266;SDS011;19638;49.080;11.896;2023-05-13T17:03:22;4.78;;;4.28;;
33266;SDS011;19638;49.080;11.896;2023-05-13T17:07:27;7.97;;;6.15;;
33266;SDS011;19638;49.080;11.896;2023-05-13T17:11:32;6.47;;;4.97;;
33266;SDS011;19638;49.080;11.896;2023-05-13T17:15:39;11.23;;;5.72;;
33266;SDS011;19638;49.080;11.896;2023-05-13T17:19:42;7.25;;;6.18;;
33266;SDS011;19638;49.080;11.896;2023-05-13T17:23:48;8.15;;;6.60;;
33266;SDS011;19638;49.080;11.896;2023-05-13T17:27:54;6.03;;;5.35;;
33266;SDS011;19638;49.080;11.896;2023-05-13T17:31:59;7.20;;;5.80;;
33266;SDS011;19638;49.080;11.896;2023-05-13T17:36:02;7.20;;;6.40;;
33266;SDS011;19638;49.080;11.896;2023-05-13T17:40:08;8.13;;;5.68;;
33266;SDS011;19638;49.080;11.896;2023-05-13T17:44:14;9.32;;;6.82;;
33266;SDS011;19638;49.080;11.896;2023-05-13T17:48:19;10.00;;;6.25;;
33266;SDS011;19638;49.080;11.896;2023-05-13T17:52:25;9.38;;;7.10;;
33266;SDS011;19638;49.080;11.896;2023-05-13T17:56:32;9.07;;;7.20;;
33266;SDS011;19638;49.080;11.896;2023-05-13T18:00:37;12.57;;;7.60;;
33266;SDS011;19638;49.080;11.896;2023-05-13T18:04:44;10.02;;;7.03;;
33266;SDS011;19638;49.080;11.896;2023-05-13T18:08:47;11.52;;;8.60;;
33266;SDS011;19638;49.080;11.896;2023-05-13T18:12:51;9.25;;;7.25;;
33266;SDS011;19638;49.080;11.896;2023-05-13T18:16:55;12.38;;;8.32;;
33266;SDS011;19638;49.080;11.896;2023-05-13T18:21:05;10.07;;;7.45;;
33266;SDS011;19638;49.080;11.896;2023-05-13T18:25:12;9.13;;;7.25;;
33266;SDS011;19638;49.080;11.896;2023-05-13T18:29:21;9.13;;;6.75;;
33266;SDS011;19638;49.080;11.896;2023-05-13T18:33:24;11.02;;;8.35;;
33266;SDS011;19638;49.080;11.896;2023-05-13T18:37:32;10.75;;;7.50;;
33266;SDS011;19638;49.080;11.896;2023-05-13T18:41:37;11.73;;;8.07;;
33266;SDS011;19638;49.080;11.896;2023-05-13T18:45:40;11.32;;;7.93;;
33266;SDS011;19638;49.080;11.896;2023-05-13T18:49:43;12.73;;;8.73;;
33266;SDS011;19638;49.080;11.896;2023-05-13T18:53:48;9.85;;;7.18;;
33266;SDS011;19638;49.080;11.896;2023-05-13T18:57:52;11.68;;;8.27;;
33266;SDS011;19638;49.080;11.896;2023-05-13T19:01:56;15.10;;;7.82;;
33266;SDS011;19638;49.080;11.896;2023-05-13T19:06:07;10.52;;;8.15;;
33266;SDS011;19638;49.080;11.896;2023-05-13T19:10:15;11.57;;;8.20;;
33266;SDS011;19638;49.080;11.896;2023-05-13T19:14:20;10.13;;;7.88;;
33266;SDS011;19638;49.080;11.896;2023-05-13T19:18:23;10.30;;;8.13;;
33266;SDS011;19638;49.080;11.896;2023-05-13T19:22:28;9.93;;;7.72;;
33266;SDS011;19638;49.080;11.896;2023-05-13T19:26:33;9.13;;;7.50;;
33266;SDS011;19638;49.080;11.896;2023-05-13T19:30:37;12.63;;;8.30;;
33266;SDS011;19638;49.080;11.896;2023-05-13T19:34:41;13.65;;;8.05;;
33266;SDS011;19638;49.080;11.896;2023-05-13T19:38:47;8.95;;;7.65;;
33266;SDS011;19638;49.080;11.896;2023-05-13T19:42:51;8.77;;;7.70;;
33266;SDS011;19638;49.080;11.896;2023-05-13T19:46:56;11.80;;;8.15;;
33266;SDS011;19638;49.080;11.896;2023-05-13T19:51:02;13.30;;;8.13;;
33266;SDS011;19638;49.080;11.896;2023-05-13T19:55:06;13.02;;;8.93;;
33266;SDS011;19638;49.080;11.896;2023-05-13T19:59:17;12.70;;;9.00;;
33266;SDS011;19638;49.080;11.896;2023-05-13T20:03:20;12.57;;;8.70;;
33266;SDS011;19638;49.080;11.896;2023-05-13T20:07:25;10.85;;;8.45;;
33266;SDS011;19638;49.080;11.896;2023-05-13T20:11:28;12.82;;;8.27;;
33266;SDS011;19638;49.080;11.896;2023-05-13T20:15:33;13.57;;;8.15;;
33266;SDS011;19638;49.080;11.896;2023-05-13T20:19:41;11.45;;;8.50;;
33266;SDS011;19638;49.080;11.896;2023-05-13T20:23:44;18.35;;;11.05;;
33266;SDS011;19638;49.080;11.896;2023-05-13T20:27:49;13.77;;;8.45;;
33266;SDS011;19638;49.080;11.896;2023-05-13T20:31:54;11.13;;;8.10;;
33266;SDS011;19638;49.080;11.896;2023-05-13T20:35:58;11.07;;;7.93;;
33266;SDS011;19638;49.080;11.896;2023-05-13T20:40:01;13.50;;;8.95;;
33266;SDS011;19638;49.080;11.896;2023-05-13T20:44:06;10.77;;;7.88;;
33266;SDS011;19638;49.080;11.896;2023-05-13T20:48:10;12.23;;;8.43;;
33266;SDS011;19638;49.080;11.896;2023-05-13T20:52:16;10.98;;;7.95;;
33266;SDS011;19638;49.080;11.896;2023-05-13T20:56:22;10.77;;;7.57;;
33266;SDS011;19638;49.080;11.896;2023-05-13T21:00:26;11.38;;;7.93;;
33266;SDS011;19638;49.080;11.896;2023-05-13T21:04:31;8.55;;;7.50;;
33266;SDS011;19638;49.080;11.896;2023-05-13T21:08:34;13.73;;;8.55;;
33266;SDS011;19638;49.080;11.896;2023-05-13T21:12:41;11.05;;;8.10;;
33266;SDS011;19638;49.080;11.896;2023-05-13T21:16:48;12.88;;;8.48;;
33266;SDS011;19638;49.080;11.896;2023-05-13T21:21:00;11.80;;;8.35;;
33266;SDS011;19638;49.080;11.896;2023-05-13T21:25:08;11.82;;;8.38;;
33266;SDS011;19638;49.080;11.896;2023-05-13T21:29:12;13.80;;;8.68;;
33266;SDS011;19638;49.080;11.896;2023-05-13T21:33:17;10.57;;;7.80;;
33266;SDS011;19638;49.080;11.896;2023-05-13T21:37:23;16.23;;;7.82;;
33266;SDS011;19638;49.080;11.896;2023-05-13T21:41:27;13.10;;;8.40;;
33266;SDS011;19638;49.080;11.896;2023-05-13T21:45:33;12.40;;;8.35;;
33266;SDS011;19638;49.080;11.896;2023-05-13T21:49:40;9.85;;;7.80;;
33266;SDS011;19638;49.080;11.896;2023-05-13T21:53:47;13.32;;;8.57;;
33266;SDS011;19638;49.080;11.896;2023-05-13T21:57:53;11.23;;;8.27;;
33266;SDS011;19638;49.080;11.896;2023-05-13T22:02:03;15.32;;;9.00;;
33266;SDS011;19638;49.080;11.896;2023-05-13T22:06:07;11.27;;;8.43;;
33266;SDS011;19638;49.080;11.896;2023-05-13T22:10:16;11.43;;;8.20;;
33266;SDS011;19638;49.080;11.896;2023-05-13T22:14:19;12.60;;;8.27;;
33266;SDS011;19638;49.080;11.896;2023-05-13T22:18:24;10.30;;;8.27;;
33266;SDS011;19638;49.080;11.896;2023-05-13T22:22:29;14.02;;;8.50;;
33266;SDS011;19638;49.080;11.896;2023-05-13T22:26:37;11.65;;;8.18;;
33266;SDS011;19638;49.080;11.896;2023-05-13T22:30:42;11.75;;;8.20;;
33266;SDS011;19638;49.080;11.896;2023-05-13T22:34:49;11.77;;;7.82;;
33266;SDS011;19638;49.080;11.896;2023-05-13T22:38:52;11.10;;;9.20;;
33266;SDS011;19638;49.080;11.896;2023-05-13T22:42:56;11.50;;;8.13;;
33266;SDS011;19638;49.080;11.896;2023-05-13T22:46:59;13.10;;;8.65;;
33266;SDS011;19638;49.080;11.896;2023-05-13T22:51:05;14.20;;;8.63;;
33266;SDS011;19638;49.080;11.896;2023-05-13T22:55:08;18.20;;;9.23;;
33266;SDS011;19638;49.080;11.896;2023-05-13T22:59:13;15.00;;;9.05;;
33266;SDS011;19638;49.080;11.896;2023-05-13T23:03:18;12.23;;;8.65;;
33266;SDS011;19638;49.080;11.896;2023-05-13T23:07:21;12.48;;;8.35;;
33266;SDS011;19638;49.080;11.896;2023-05-13T23:11:25;12.00;;;8.63;;
33266;SDS011;19638;49.080;11.896;2023-05-13T23:15:30;13.45;;;8.48;;
33266;SDS011;19638;49.080;11.896;2023-05-13T23:19:33;11.20;;;8.95;;
33266;SDS011;19638;49.080;11.896;2023-05-13T23:23:38;18.27;;;8.35;;
33266;SDS011;19638;49.080;11.896;2023-05-13T23:27:43;14.40;;;9.15;;
33266;SDS011;19638;49.080;11.896;2023-05-13T23:31:50;15.55;;;8.73;;
33266;SDS011;19638;49.080;11.896;2023-05-13T23:35:53;13.38;;;8.82;;
33266;SDS011;19638;49.080;11.896;2023-05-13T23:39:56;13.38;;;8.77;;
33266;SDS011;19638;49.080;11.896;2023-05-13T23:43:59;14.23;;;9.70;;
33266;SDS011;19638;49.080;11.896;2023-05-13T23:48:07;13.15;;;9.20;;
33266;SDS011;19638;49.080;11.896;2023-05-13T23:52:11;13.10;;;8.98;;
33266;SDS011;19638;49.080;11.896;2023-05-13T23:56:14;13.48;;;9.18;;
